現在の羽田の雲行き…

LUXURY FLIGHT

080-7560-1817

羽田空港本店: 所在地: 東京都大田区羽田空港3-3-2    セントレア店: 所在地: 愛知県常滑市セントレア1-1      HICityファイター店: 所在地: 東京都大田区羽田空港1-1-4         大阪国際空港店:所在地:大阪府豊中市蛍池西町3-555
           第1旅客ターミナル5階                  FLIGHT OF DREAMS FLIGHT PARK                HANEDA INNOVATION CITY ZONE-J 2-5               中央ブロック2F
      営業時間: 10:00~20:00 定休日: 年中無休         営業時間: 10:00~20:00 定休日: 年中無休             営業時間: 10:00~20:00 定休日: 年中無休        営業時間: 平日10:00~19:00 休日 09:00-19:00 定休日: 年中無休
      電話番号: 080-7560-1817                 電話番号: 080-4945-5666                    電話番号: 03-5579-7980                 電話番号: 090-6607-0299

lv

現在の羽田の雲行き…

STAFF BLOG

2021/09/18 現在の羽田の雲行き…

 

 

こんにちは、いつもブログを読んでいただきありがとうございます。

 

羽田空港本店からの現在の空模様はこんな状況です。

 

RJTT 180230Z 18013KT 7000 -SHRA FEW007 SCT015 BKN040 26/25 Q1006

TEMPO 3000 +SHRA BR FEW005 BKN008 RMK 1ST007 3CU015 6CU040 A2973

 

時より強い雨が視程を一気に悪くさせる状況が散見されます。

 

この先、広く荒天が予想されておりますので、皆様、最新の情報を確認しつつ、

安全第一で過ごしていただけましたら幸いです。

 

本日のご予約のお客様におかれましては、ご無理なさらないようにくれぐれもお気をつけてご来店ください。

 

また、本日も終日に渡りご予約が満席の状況ではございますが、

電車の遅延、航空便の欠航等につきましては、柔軟に対応をさせて頂く所存ですので、

どうかお気軽にご相談ください。

 

どんな状況でも、常に心を持って対応することをお約束いたします。

 

 

いつもブログを読んでいただき本当にありがとうございます。

 

「感謝」

 

 

img_1581

 

 

 

TOP